This is the latest recevied weather packets stored in our database for station/object KD4UFD. If no packets are shown the sender has not sent any weather packets the latest 10 day(s).
| Time | Temp. | Humidity | Pressure | Rain* | Wind** | Luminosity | Snow |
|---|---|---|---|---|---|---|---|
| 1778106218 | 19.44° C | 97% | 1011.4 hPa | 0 mm | - | 58 W/m² | - |
| 1778105916 | 19.44° C | 97% | 1011.6 hPa | 0 mm | - | 60 W/m² | - |
| 1778105613 | 19.44° C | 97% | 1011.4 hPa | 1.78 mm | - | 71 W/m² | - |
| 1778105311 | 19.44° C | 97% | 1011.5 hPa | 3.05 mm | - | 63 W/m² | - |
| 1778105006 | 19.44° C | 97% | 1011.2 hPa | 1.27 mm | - | 41 W/m² | - |
| 1778104703 | 19.44° C | 97% | 1011.5 hPa | 0 mm | - | 33 W/m² | - |
| 1778104399 | 19.44° C | 96% | 1011.3 hPa | 0 mm | - | 24 W/m² | - |
| 1778104095 | 19.44° C | 96% | 1011.3 hPa | 1.78 mm | - | 19 W/m² | - |
| 1778103792 | 19.44° C | 96% | 1011 hPa | 1.78 mm | - | 35 W/m² | - |
| 1778103490 | 19.44° C | 96% | 1011.1 hPa | 1.27 mm | - | 81 W/m² | - |
| 1778103187 | 19.44° C | 95% | 1011.2 hPa | 1.27 mm | - | 62 W/m² | - |
| 1778102884 | 19.44° C | 95% | 1011.3 hPa | 0 mm | - | 29 W/m² | - |
| 1778102580 | 20° C | 95% | 1011.2 hPa | 0 mm | - | 46 W/m² | - |
| 1778102275 | 20° C | 95% | 1011 hPa | 0 mm | - | 58 W/m² | - |
| 1778101972 | 20° C | 95% | 1011.3 hPa | 0 mm | - | 43 W/m² | - |
| 1778101669 | 20° C | 95% | 1010.9 hPa | 0 mm | - | 69 W/m² | - |
| 1778101365 | 20° C | 95% | 1011 hPa | 0 mm | - | 30 W/m² | - |
| 1778101062 | 20° C | 95% | 1010.8 hPa | 0 mm | - | 54 W/m² | - |
| 1778100758 | 20° C | 94% | 1010.6 hPa | 1.78 mm | - | 123 W/m² | - |
| 1778100455 | 20° C | 94% | 1010.7 hPa | 3.05 mm | - | 191 W/m² | - |
| 1778100153 | 20° C | 93% | 1010.9 hPa | 1.27 mm | - | 126 W/m² | - |
| 1778099851 | 20° C | 93% | 1010.4 hPa | 0 mm | - | 100 W/m² | - |
| 1778099547 | 20° C | 93% | 1010.3 hPa | 0 mm | - | 110 W/m² | - |
| 1778099245 | 20.56° C | 92% | 1010.9 hPa | 0 mm | - | 137 W/m² | - |
| 1778098941 | 20.56° C | 92% | 1011.2 hPa | 0 mm | - | 116 W/m² | - |
* Rain latest hour (hover to see other rain measurements)
** Current wind speed in m/s (hover to see current wind gust speed)